Time;durP1;ratioP1;P1;durP2;ratioP2;P2;SDS_P1;SDS_P2;PMS_P1;PMS_P2;Temp;Humidity;BMP_temperature;BMP_pressure;BME280_temperature;BME280_humidity;BME280_pressure;Samples;Min_cycle;Max_cycle;Signal;HPM_P1;HPM_P2
2022/11/07 08:02:20;;;;;;;2.43;2.13;;;11.40;99.90;;;;;;5176255;27;20652;-79
2022/11/07 08:04:49;;;;;;;2.40;1.70;;;11.90;99.90;;;;;;5175290;27;20184;-79
2022/11/07 08:07:17;;;;;;;2.77;1.80;;;12.20;99.90;;;;;;5155022;27;20201;-80
2022/11/07 08:09:45;;;;;;;2.87;1.90;;;12.50;99.90;;;;;;5153367;27;20238;-79
2022/11/07 08:12:13;;;;;;;2.83;1.77;;;12.70;99.90;;;;;;5194370;27;20211;-79
2022/11/07 08:14:41;;;;;;;4.03;3.50;;;12.70;99.90;;;;;;5195229;27;20633;-80
2022/11/07 08:17:10;;;;;;;6.33;3.00;;;13.00;99.90;;;;;;5194947;27;20255;-83
2022/11/07 08:19:39;;;;;;;4.10;3.50;;;13.00;99.90;;;;;;5182874;27;20204;-80
2022/11/07 08:22:07;;;;;;;3.63;2.57;;;13.10;99.90;;;;;;5168638;27;20211;-82
2022/11/07 08:24:39;;;;;;;6.10;4.47;;;13.20;99.90;;;;;;5174677;27;20291;-80
2022/11/07 08:27:17;;;;;;;3.50;2.77;;;13.40;99.90;;;;;;5176827;27;20208;-81
2022/11/07 08:29:45;;;;;;;4.23;3.67;;;13.90;99.90;;;;;;5178010;27;20657;-80
2022/11/07 08:32:14;;;;;;;4.37;3.23;;;14.10;99.90;;;;;;5168679;27;20225;-80
2022/11/07 08:34:59;;;;;;;4.47;3.70;;;14.30;99.90;;;;;;5158197;27;20228;-80
2022/11/07 08:37:28;;;;;;;5.10;4.30;;;14.70;99.90;;;;;;5157449;27;20217;-82
2022/11/07 08:39:56;;;;;;;2.20;2.00;;;15.30;99.90;;;;;;5153544;27;20221;-80
2022/11/07 08:42:24;;;;;;;5.10;3.00;;;15.70;99.90;;;;;;5156445;27;20202;-82
2022/11/07 08:44:54;;;;;;;4.03;2.37;;;16.60;99.90;;;;;;5155306;27;20242;-82
2022/11/07 08:47:22;;;;;;;3.30;2.70;;;17.60;99.90;;;;;;5173385;27;20315;-82
2022/11/07 08:49:50;;;;;;;2.10;1.90;;;18.50;99.90;;;;;;5168123;27;20209;-83
2022/11/07 08:52:20;;;;;;;2.93;2.47;;;19.40;99.90;;;;;;5162237;27;20202;-84
2022/11/07 08:54:51;;;;;;;2.50;1.40;;;19.20;99.90;;;;;;5198964;27;20207;-82
2022/11/07 08:57:20;;;;;;;3.30;1.50;;;19.10;99.90;;;;;;5198148;27;20657;-83
2022/11/07 08:59:48;;;;;;;2.20;1.30;;;19.50;99.90;;;;;;5199128;27;20212;-83
2022/11/07 09:02:17;;;;;;;3.00;1.10;;;20.70;99.90;;;;;;5157171;27;20225;-84
2022/11/07 09:05:06;;;;;;;2.38;1.20;;;21.80;97.30;;;;;;5154311;27;20212;-83
2022/11/07 09:07:38;;;;;;;2.42;1.02;;;21.30;96.40;;;;;;5148408;27;20288;-83
2022/11/07 09:10:07;;;;;;;1.92;1.08;;;21.10;97.00;;;;;;5140973;27;20205;-83
2022/11/07 09:12:37;;;;;;;2.00;1.17;;;21.50;95.80;;;;;;5148704;27;20273;-83
2022/11/07 09:15:08;;;;;;;1.73;1.25;;;21.10;97.20;;;;;;5151370;27;20247;-84
2022/11/07 09:17:37;;;;;;;1.15;1.00;;;21.00;96.40;;;;;;5156679;27;20274;-83
2022/11/07 09:20:06;;;;;;;1.70;1.20;;;22.40;95.40;;;;;;5164439;27;20272;-83
2022/11/07 09:22:36;;;;;;;3.45;1.35;;;23.40;94.30;;;;;;5160421;27;20208;-82
2022/11/07 09:25:05;;;;;;;1.77;1.35;;;22.40;93.00;;;;;;5159792;27;20223;-84
2022/11/07 09:27:36;;;;;;;2.08;1.23;;;22.70;93.10;;;;;;5160498;27;20237;-83
2022/11/07 09:30:05;;;;;;;5.22;1.65;;;22.00;93.10;;;;;;5159498;27;20220;-83
2022/11/07 09:32:33;;;;;;;1.75;1.10;;;21.90;94.40;;;;;;5162326;27;20219;-82
2022/11/07 09:35:16;;;;;;;2.70;1.40;;;21.80;93.50;;;;;;5137604;27;20640;-84
2022/11/07 09:37:46;;;;;;;2.22;1.20;;;22.00;93.50;;;;;;5138342;27;20201;-82
2022/11/07 09:40:23;;;;;;;1.75;1.20;;;22.10;92.80;;;;;;5138116;27;20206;-82
2022/11/07 09:43:07;;;;;;;2.20;1.20;;;22.10;92.80;;;;;;5138071;27;20242;-82
2022/11/07 09:45:43;;;;;;;1.38;1.00;;;23.10;91.60;;;;;;5151627;27;20215;-82
2022/11/07 09:48:18;;;;;;;2.10;1.30;;;23.20;90.20;;;;;;5159497;27;20256;-83
2022/11/07 09:50:48;;;;;;;1.52;1.20;;;22.70;90.60;;;;;;5142784;27;20200;-85
2022/11/07 09:53:24;;;;;;;4.03;1.38;;;21.90;91.40;;;;;;5161589;27;20200;-84
2022/11/07 09:55:55;;;;;;;3.17;1.33;;;21.60;91.30;;;;;;5139295;27;20239;-82
2022/11/07 09:58:29;;;;;;;2.95;1.25;;;21.40;91.20;;;;;;5138996;27;20228;-84
2022/11/07 10:01:02;;;;;;;1.58;1.13;;;21.60;91.60;;;;;;5138200;27;20217;-83
2022/11/07 10:03:31;;;;;;;3.80;1.23;;;21.30;92.40;;;;;;5141007;27;20315;-81
2022/11/07 10:06:06;;;;;;;1.95;1.20;;;21.90;91.40;;;;;;5138758;27;20213;-83
2022/11/07 10:08:46;;;;;;;1.67;1.40;;;22.40;90.40;;;;;;5137029;27;20610;-82
2022/11/07 10:11:30;;;;;;;1.45;1.00;;;22.60;90.70;;;;;;5157254;27;20857;-80
2022/11/07 10:14:04;;;;;;;2.53;1.30;;;22.70;90.50;;;;;;5158079;27;20591;-84
2022/11/07 10:16:53;;;;;;;2.45;1.30;;;22.70;90.50;;;;;;5159231;27;20631;-83
2022/11/07 10:19:32;;;;;;;1.58;1.10;;;22.60;90.60;;;;;;5131083;27;20210;-83
2022/11/07 10:22:11;;;;;;;1.40;1.10;;;22.60;91.90;;;;;;5122072;27;20186;-83
2022/11/07 10:24:53;;;;;;;1.38;0.93;;;22.70;90.90;;;;;;5131744;27;20204;-85
2022/11/07 10:27:22;;;;;;;1.65;1.00;;;21.40;90.70;;;;;;5112783;28;20315;-83
2022/11/07 10:29:55;;;;;;;2.53;1.05;;;20.90;92.20;;;;;;5117181;28;20320;-82
2022/11/07 10:32:35;;;;;;;1.10;0.90;;;20.70;92.60;;;;;;5118909;27;20205;-78
2022/11/07 10:35:19;;;;;;;2.20;1.20;;;20.10;93.00;;;;;;5117722;28;20209;-81
2022/11/07 10:37:59;;;;;;;1.30;1.00;;;20.00;94.10;;;;;;5117708;28;20196;-83
2022/11/07 10:40:37;;;;;;;3.17;1.40;;;19.60;93.90;;;;;;5123299;28;20210;-84
2022/11/07 10:43:16;;;;;;;2.75;1.55;;;19.30;95.00;;;;;;5131654;28;20189;-84
2022/11/07 10:45:45;;;;;;;3.00;1.60;;;19.30;95.20;;;;;;5136516;27;20655;-82
2022/11/07 10:48:15;;;;;;;2.67;1.40;;;19.20;95.60;;;;;;5131200;28;20294;-86
2022/11/07 10:50:51;;;;;;;3.10;1.40;;;19.30;95.90;;;;;;5137498;27;20235;-82
2022/11/07 10:53:21;;;;;;;2.45;1.65;;;19.50;96.30;;;;;;5119551;27;20209;-84
2022/11/07 10:55:54;;;;;;;1.83;1.35;;;19.40;95.80;;;;;;5122920;28;20217;-83
2022/11/07 10:58:25;;;;;;;2.85;1.65;;;19.50;97.50;;;;;;5130290;28;20217;-84
2022/11/07 11:01:02;;;;;;;2.25;1.10;;;20.00;95.80;;;;;;5130000;28;20235;-82
2022/11/07 11:03:33;;;;;;;3.40;1.30;;;20.10;95.20;;;;;;5135185;27;20235;-85
2022/11/07 11:06:21;;;;;;;1.60;0.90;;;20.00;95.20;;;;;;5130697;28;20275;-84
2022/11/07 11:08:51;;;;;;;1.95;1.00;;;20.10;95.90;;;;;;5137743;27;20218;-83
2022/11/07 11:11:33;;;;;;;3.55;1.25;;;19.80;95.80;;;;;;5138096;27;20210;-84
2022/11/07 11:14:05;;;;;;;2.20;1.10;;;19.60;96.30;;;;;;5129811;28;20277;-83
2022/11/07 11:16:37;;;;;;;3.37;1.00;;;19.50;95.60;;;;;;5130896;28;20194;-83
2022/11/07 11:19:16;;;;;;;1.27;1.07;;;19.40;95.80;;;;;;5137913;27;20216;-85
2022/11/07 11:21:47;;;;;;;2.87;1.00;;;19.30;96.50;;;;;;5159779;27;20197;-84
2022/11/07 11:24:30;;;;;;;3.10;1.10;;;19.00;96.50;;;;;;5170873;27;20200;-84
2022/11/07 11:27:06;;;;;;;3.57;1.20;;;18.60;97.00;;;;;;5159477;27;20311;-86
2022/11/07 11:29:40;;;;;;;1.60;0.80;;;18.20;97.60;;;;;;5130401;28;20206;-83
2022/11/07 11:32:20;;;;;;;2.83;1.30;;;17.40;98.50;;;;;;5124624;28;20291;-81
2022/11/07 11:35:08;;;;;;;1.87;1.07;;;17.20;99.50;;;;;;5116063;28;20186;-81
2022/11/07 11:37:43;;;;;;;2.27;1.10;;;16.80;99.90;;;;;;5136319;27;20293;-80
2022/11/07 11:40:17;;;;;;;2.13;1.20;;;16.80;99.90;;;;;;5136111;27;20359;-80
2022/11/07 11:42:57;;;;;;;2.63;1.50;;;16.50;99.90;;;;;;5136602;27;20662;-80
2022/11/07 11:45:33;;;;;;;2.53;1.30;;;16.60;99.90;;;;;;5115605;28;20216;-80
2022/11/07 11:48:12;;;;;;;2.63;1.30;;;16.90;99.90;;;;;;5122092;28;20229;-82
2022/11/07 11:50:48;;;;;;;2.67;1.30;;;17.20;99.90;;;;;;5125093;28;20685;-82
2022/11/07 11:53:22;;;;;;;1.77;1.10;;;17.20;99.90;;;;;;5125436;28;20213;-80
2022/11/07 11:55:57;;;;;;;4.20;1.10;;;17.10;99.90;;;;;;5121025;28;20220;-81
2022/11/07 11:58:41;;;;;;;1.80;0.87;;;17.00;99.90;;;;;;5123320;28;20218;-84
2022/11/07 12:01:22;;;;;;;2.97;1.10;;;16.90;99.90;;;;;;5115682;28;20206;-80
2022/11/07 12:04:23;;;;;;;1.80;1.07;;;16.80;99.90;;;;;;5121471;28;20190;-83
2022/11/07 12:06:56;;;;;;;1.77;1.03;;;16.90;99.90;;;;;;5128846;28;20217;-84
2022/11/07 12:09:34;;;;;;;3.57;1.20;;;16.90;99.90;;;;;;5143740;27;20229;-81
2022/11/07 12:12:16;;;;;;;1.43;1.00;;;16.70;99.90;;;;;;5162095;27;20267;-78
2022/11/07 12:15:11;;;;;;;2.47;1.90;;;16.60;99.90;;;;;;5160097;27;20568;-80
2022/11/07 12:17:44;;;;;;;2.90;1.20;;;16.40;99.90;;;;;;5160983;27;20268;-80
2022/11/07 12:20:19;;;;;;;2.87;1.10;;;16.00;99.90;;;;;;5159378;27;20209;-81
2022/11/07 12:23:06;;;;;;;2.90;1.07;;;15.80;99.90;;;;;;5157978;27;20185;-80
2022/11/07 12:25:53;;;;;;;2.20;1.07;;;15.60;99.90;;;;;;5161581;27;20226;-81
2022/11/07 12:28:40;;;;;;;2.80;1.20;;;15.50;99.90;;;;;;5161808;27;20227;-80
2022/11/07 12:31:31;;;;;;;2.63;1.40;;;15.50;99.90;;;;;;5121158;28;20240;-79
2022/11/07 12:34:09;;;;;;;2.27;1.20;;;15.90;99.90;;;;;;5118490;28;20300;-80
2022/11/07 12:36:52;;;;;;;4.20;1.60;;;16.20;99.90;;;;;;5119417;28;20226;-80
2022/11/07 12:39:46;;;;;;;2.63;1.30;;;16.30;99.90;;;;;;5120225;28;20198;-78
2022/11/07 12:42:27;;;;;;;3.77;1.30;;;16.30;99.90;;;;;;5120887;28;20238;-78
2022/11/07 12:45:07;;;;;;;1.70;1.20;;;16.30;99.90;;;;;;5124371;28;20240;-79
2022/11/07 12:48:04;;;;;;;3.87;1.20;;;16.10;99.90;;;;;;5124794;27;20206;-80
2022/11/07 12:50:52;;;;;;;2.60;1.37;;;16.10;99.90;;;;;;5122376;28;20297;-81
2022/11/07 12:53:34;;;;;;;1.80;0.80;;;15.90;99.90;;;;;;5121806;28;20651;-78
2022/11/07 12:56:05;;;;;;;2.23;1.20;;;15.80;99.90;;;;;;5122233;28;20224;-79
2022/11/07 12:58:38;;;;;;;1.40;0.73;;;15.60;99.90;;;;;;5121782;28;20575;-79
2022/11/07 13:01:12;;;;;;;4.60;1.40;;;15.40;99.90;;;;;;5128573;27;20669;-79
2022/11/07 13:03:57;;;;;;;2.50;1.23;;;15.30;99.90;;;;;;5141972;27;20189;-79
2022/11/07 13:06:35;;;;;;;2.77;1.03;;;15.10;99.90;;;;;;5133727;27;20198;-75
2022/11/07 13:09:37;;;;;;;2.47;1.40;;;15.10;99.90;;;;;;5139017;27;20291;-77
2022/11/07 13:12:12;;;;;;;1.80;0.87;;;15.20;99.90;;;;;;5134626;27;20666;-75
2022/11/07 13:14:42;;;;;;;3.53;1.10;;;15.00;99.90;;;;;;5135695;27;20233;-76
2022/11/07 13:17:18;;;;;;;2.40;1.27;;;15.00;99.90;;;;;;5116985;28;20285;-75
2022/11/07 13:20:00;;;;;;;2.33;1.13;;;15.10;99.90;;;;;;5116675;28;20201;-77
2022/11/07 13:22:34;;;;;;;2.67;1.30;;;15.10;99.90;;;;;;5116963;27;20206;-75
2022/11/07 13:25:27;;;;;;;3.07;0.90;;;15.10;99.90;;;;;;5126721;27;20218;-73
2022/11/07 13:28:07;;;;;;;2.47;1.00;;;15.00;99.90;;;;;;5114920;27;20202;-76
2022/11/07 13:31:00;;;;;;;2.53;1.17;;;15.30;99.90;;;;;;5129696;27;20570;-75
2022/11/07 13:33:36;;;;;;;3.80;1.17;;;15.90;99.90;;;;;;5136402;27;20622;-76
2022/11/07 13:36:26;;;;;;;3.17;1.07;;;16.00;99.90;;;;;;5136375;27;20213;-76
2022/11/07 13:38:58;;;;;;;2.60;1.00;;;15.80;99.90;;;;;;5128085;27;20730;-75
2022/11/07 13:41:32;;;;;;;1.67;1.17;;;15.40;99.90;;;;;;5137679;27;20221;-77
2022/11/07 13:44:04;;;;;;;2.10;1.00;;;15.20;99.90;;;;;;5136928;27;20193;-78
2022/11/07 13:46:36;;;;;;;1.80;1.10;;;15.00;99.90;;;;;;5118999;28;20202;-76
2022/11/07 13:49:15;;;;;;;2.80;1.07;;;14.90;99.90;;;;;;5144079;27;20213;-75
2022/11/07 13:51:52;;;;;;;3.60;1.53;;;14.70;99.90;;;;;;5142148;27;20604;-78
2022/11/07 13:54:27;;;;;;;3.17;1.23;;;14.80;99.90;;;;;;5121290;28;20269;-77
2022/11/07 13:56:57;;;;;;;1.83;1.03;;;14.70;99.90;;;;;;5118460;27;20218;-77
2022/11/07 13:59:35;;;;;;;2.90;1.27;;;14.70;99.90;;;;;;5132727;27;20213;-76
2022/11/07 14:02:05;;;;;;;2.10;1.00;;;14.70;99.90;;;;;;5132968;27;20714;-75
2022/11/07 14:04:33;;;;;;;3.13;0.90;;;14.70;99.90;;;;;;5134121;27;20205;-76
2022/11/07 14:07:19;;;;;;;1.77;1.07;;;14.60;99.90;;;;;;5135035;27;20308;-77
2022/11/07 14:09:57;;;;;;;3.27;1.30;;;14.70;99.90;;;;;;5136676;27;20241;-75
2022/11/07 14:12:29;;;;;;;1.87;1.20;;;14.70;99.90;;;;;;5136455;27;20227;-75
2022/11/07 14:14:59;;;;;;;1.40;0.90;;;14.60;99.90;;;;;;5132059;27;20206;-74
2022/11/07 14:17:32;;;;;;;2.47;1.00;;;14.60;99.90;;;;;;5133452;27;20404;-73
2022/11/07 14:20:07;;;;;;;2.60;1.27;;;14.50;99.90;;;;;;5135903;27;20185;-73
2022/11/07 14:22:42;;;;;;;80.03;46.57;;;14.50;99.90;;;;;;5136330;27;20273;-75
2022/11/07 14:25:22;;;;;;;106.03;56.70;;;14.50;99.90;;;;;;5135203;27;20209;-75
2022/11/07 14:27:51;;;;;;;43.53;24.07;;;14.50;99.90;;;;;;5134111;27;20189;-74
2022/11/07 14:30:22;;;;;;;40.90;25.03;;;14.40;99.90;;;;;;5135619;27;20439;-74
2022/11/07 14:32:55;;;;;;;5.10;3.10;;;14.40;99.90;;;;;;5134560;27;20679;-79
2022/11/07 14:35:25;;;;;;;3.67;1.90;;;14.40;99.90;;;;;;5135870;27;20297;-74
2022/11/07 14:37:55;;;;;;;2.67;1.60;;;14.40;99.90;;;;;;5136329;27;20301;-75
2022/11/07 14:40:24;;;;;;;3.93;1.60;;;14.40;99.90;;;;;;5136165;27;20217;-76
2022/11/07 14:42:53;;;;;;;2.97;1.27;;;14.40;99.90;;;;;;5129905;27;20229;-78
2022/11/07 14:45:23;;;;;;;3.47;1.57;;;14.20;99.90;;;;;;5134572;27;20253;-76
2022/11/07 14:48:12;;;;;;;4.03;1.40;;;14.20;99.90;;;;;;5138688;27;20243;-76
2022/11/07 14:50:42;;;;;;;3.93;1.87;;;14.10;99.90;;;;;;5127796;27;20300;-75
2022/11/07 14:53:19;;;;;;;2.47;1.40;;;14.00;99.90;;;;;;5134690;27;20296;-77
2022/11/07 14:55:50;;;;;;;2.63;1.50;;;13.80;99.90;;;;;;5131034;27;20558;-77
2022/11/07 14:58:23;;;;;;;2.53;1.43;;;13.70;99.90;;;;;;5115679;28;20558;-76
2022/11/07 15:00:54;;;;;;;3.83;1.33;;;13.70;99.90;;;;;;5132979;27;20346;-75
2022/11/07 15:03:30;;;;;;;3.27;1.30;;;13.60;99.90;;;;;;5126473;27;20270;-74
2022/11/07 15:06:02;;;;;;;3.77;1.37;;;14.20;99.90;;;;;;5134293;27;20846;-76
2022/11/07 15:08:35;;;;;;;2.97;1.13;;;13.90;99.90;;;;;;5134133;27;20209;-75
2022/11/07 15:11:06;;;;;;;2.60;1.40;;;13.70;99.90;;;;;;5132782;27;20270;-77
2022/11/07 15:13:35;;;;;;;4.00;1.40;;;13.50;99.90;;;;;;5133898;27;20209;-76
2022/11/07 15:16:09;;;;;;;4.67;1.40;;;13.30;99.90;;;;;;5134370;27;20266;-74
2022/11/07 15:18:41;;;;;;;2.83;1.30;;;13.20;99.90;;;;;;5131924;27;20229;-76
2022/11/07 15:21:24;;;;;;;3.70;1.50;;;13.10;99.90;;;;;;5132814;27;20197;-75
2022/11/07 15:23:54;;;;;;;3.27;1.27;;;12.90;99.90;;;;;;5129579;27;20208;-74
2022/11/07 15:26:24;;;;;;;2.77;1.40;;;12.80;99.90;;;;;;5124343;27;20208;-76
2022/11/07 15:28:54;;;;;;;2.53;1.30;;;12.60;99.90;;;;;;5113338;28;20236;-78
2022/11/07 15:31:26;;;;;;;4.43;1.37;;;12.50;99.90;;;;;;5118872;27;20252;-74
2022/11/07 15:33:57;;;;;;;4.50;1.30;;;12.40;99.90;;;;;;5135689;27;20207;-77
2022/11/07 15:36:27;;;;;;;2.43;1.50;;;12.20;99.90;;;;;;5135467;27;20225;-75
2022/11/07 15:38:59;;;;;;;3.67;2.13;;;12.10;99.90;;;;;;5134221;27;20210;-79
2022/11/07 15:41:27;;;;;;;3.17;1.73;;;12.00;99.90;;;;;;5133854;27;20205;-76
2022/11/07 15:43:55;;;;;;;2.23;1.40;;;11.90;99.90;;;;;;5134387;27;20258;-79
2022/11/07 15:46:28;;;;;;;3.47;1.50;;;11.80;99.90;;;;;;5133948;27;20205;-78
2022/11/07 15:48:57;;;;;;;3.47;1.50;;;11.70;99.90;;;;;;5135052;27;20225;-75
2022/11/07 15:51:25;;;;;;;2.73;1.70;;;11.50;99.90;;;;;;5130393;27;20256;-78
2022/11/07 15:53:53;;;;;;;4.50;1.73;;;11.40;99.90;;;;;;5133745;27;20233;-75
2022/11/07 15:56:25;;;;;;;4.03;1.73;;;11.30;99.90;;;;;;5133868;28;20624;-75
2022/11/07 15:58:54;;;;;;;8.80;4.33;;;11.20;99.90;;;;;;5134343;28;20238;-74
2022/11/07 16:01:28;;;;;;;7.17;4.30;;;11.10;99.90;;;;;;5139321;28;20293;-75
2022/11/07 16:03:57;;;;;;;6.90;3.40;;;11.00;99.90;;;;;;5134513;28;20215;-76
2022/11/07 16:06:30;;;;;;;5.67;3.13;;;11.00;99.90;;;;;;5149714;27;20220;-73
2022/11/07 16:08:59;;;;;;;8.10;3.10;;;10.80;99.90;;;;;;5136724;27;20207;-75
2022/11/07 16:11:28;;;;;;;6.27;3.40;;;10.70;99.90;;;;;;5133156;28;20225;-74
2022/11/07 16:13:58;;;;;;;8.37;3.97;;;10.60;99.90;;;;;;5133051;27;20296;-76
2022/11/07 16:16:47;;;;;;;8.40;5.80;;;10.50;99.90;;;;;;5134097;27;20205;-75
2022/11/07 16:19:18;;;;;;;16.97;12.20;;;10.30;99.90;;;;;;5137667;27;20229;-76
2022/11/07 16:21:46;;;;;;;16.43;13.10;;;10.20;99.90;;;;;;5138415;27;20198;-74
2022/11/07 16:24:16;;;;;;;17.33;13.10;;;10.10;99.90;;;;;;5140315;27;20580;-76
2022/11/07 16:26:47;;;;;;;17.00;11.00;;;10.00;99.90;;;;;;5134682;27;20229;-74
2022/11/07 16:29:15;;;;;;;14.43;10.17;;;10.30;99.90;;;;;;5134765;27;20685;-75
2022/11/07 16:31:45;;;;;;;14.63;9.23;;;10.10;99.90;;;;;;5126684;27;20664;-75
2022/11/07 16:34:16;;;;;;;11.47;8.53;;;10.00;99.90;;;;;;5137382;27;20222;-76
2022/11/07 16:36:47;;;;;;;9.67;7.80;;;9.90;99.90;;;;;;5137825;27;20228;-75
2022/11/07 16:39:20;;;;;;;12.07;7.27;;;9.70;99.90;;;;;;5137179;27;20236;-77
2022/11/07 16:41:50;;;;;;;14.27;8.37;;;9.60;99.90;;;;;;5137550;27;20209;-77
2022/11/07 16:44:21;;;;;;;10.80;7.27;;;9.60;99.90;;;;;;5139721;27;20697;-76
2022/11/07 16:46:55;;;;;;;11.40;7.20;;;9.40;99.90;;;;;;5137766;27;20205;-77
2022/11/07 16:49:29;;;;;;;11.60;7.60;;;9.30;99.90;;;;;;5127888;27;20202;-76
2022/11/07 16:51:58;;;;;;;9.67;5.80;;;9.20;99.90;;;;;;5116608;28;20255;-75
2022/11/07 16:54:26;;;;;;;8.53;5.80;;;9.20;99.90;;;;;;5116438;28;20198;-76
2022/11/07 16:56:56;;;;;;;9.70;5.20;;;9.10;99.90;;;;;;5132093;27;20273;-77
2022/11/07 16:59:25;;;;;;;7.93;5.20;;;9.00;99.90;;;;;;5136774;27;20205;-76
2022/11/07 17:01:53;;;;;;;9.93;5.03;;;9.00;99.90;;;;;;5136849;27;20277;-76
2022/11/07 17:04:21;;;;;;;6.60;4.50;;;8.90;99.90;;;;;;5136364;27;20292;-76
2022/11/07 17:06:49;;;;;;;7.90;4.60;;;8.90;99.90;;;;;;5136678;27;20259;-77
2022/11/07 17:09:19;;;;;;;7.40;4.40;;;8.90;99.90;;;;;;5136788;27;20650;-75
2022/11/07 17:11:47;;;;;;;10.40;4.63;;;8.80;99.90;;;;;;5136654;27;20249;-75
2022/11/07 17:14:17;;;;;;;10.70;4.90;;;8.70;99.90;;;;;;5132631;27;20206;-76
2022/11/07 17:16:48;;;;;;;9.33;5.07;;;8.60;99.90;;;;;;5149690;27;20216;-75
2022/11/07 17:19:16;;;;;;;8.50;5.10;;;8.60;99.90;;;;;;5156810;27;20260;-75
2022/11/07 17:21:48;;;;;;;9.77;5.60;;;8.50;99.90;;;;;;5154913;27;20213;-76
2022/11/07 17:24:19;;;;;;;9.30;5.87;;;8.50;99.90;;;;;;5120722;27;20292;-76
2022/11/07 17:26:48;;;;;;;14.23;7.87;;;8.50;99.90;;;;;;5116168;28;20205;-76
2022/11/07 17:29:17;;;;;;;14.53;7.33;;;8.40;99.90;;;;;;5115814;28;20203;-76
2022/11/07 17:31:45;;;;;;;11.87;7.60;;;8.40;99.90;;;;;;5116106;28;20222;-77
2022/11/07 17:34:15;;;;;;;13.77;7.30;;;8.40;99.90;;;;;;5132750;27;20268;-75
2022/11/07 17:36:47;;;;;;;15.20;7.37;;;8.30;99.90;;;;;;5136632;27;20236;-76
2022/11/07 17:39:17;;;;;;;14.50;7.53;;;8.30;99.90;;;;;;5136215;27;20206;-77
2022/11/07 17:41:47;;;;;;;18.03;8.20;;;8.20;99.90;;;;;;5142538;27;20811;-76
2022/11/07 17:44:18;;;;;;;12.50;7.70;;;8.20;99.90;;;;;;5149679;27;20205;-75
2022/11/07 17:46:49;;;;;;;16.57;7.90;;;8.20;99.90;;;;;;5136266;27;20252;-75
2022/11/07 17:49:20;;;;;;;18.90;8.40;;;8.10;99.90;;;;;;5135742;27;20289;-78
2022/11/07 17:51:51;;;;;;;17.80;7.77;;;8.00;99.90;;;;;;5115195;28;20246;-75
2022/11/07 17:54:19;;;;;;;15.60;8.20;;;8.00;99.90;;;;;;5112036;27;20218;-76
2022/11/07 17:56:55;;;;;;;17.27;7.27;;;8.00;99.90;;;;;;5127190;27;20325;-75
2022/11/07 17:59:25;;;;;;;16.60;7.10;;;7.90;99.90;;;;;;5135757;27;20288;-75
2022/11/07 18:01:53;;;;;;;16.30;7.67;;;7.90;99.90;;;;;;5135564;27;20292;-74
2022/11/07 18:04:21;;;;;;;14.70;7.13;;;7.90;99.90;;;;;;5135799;27;20263;-75
2022/11/07 18:06:50;;;;;;;14.13;7.17;;;7.80;99.90;;;;;;5135861;27;20300;-75
2022/11/07 18:09:18;;;;;;;15.07;6.87;;;7.80;99.90;;;;;;5135177;27;20224;-76
2022/11/07 18:11:46;;;;;;;12.37;6.80;;;7.80;99.90;;;;;;5135467;27;20225;-75
2022/11/07 18:14:15;;;;;;;12.77;7.10;;;7.80;99.90;;;;;;5140318;27;20216;-74
2022/11/07 18:16:44;;;;;;;20.40;7.70;;;7.80;99.90;;;;;;5136832;27;20236;-76
2022/11/07 18:19:13;;;;;;;14.17;7.77;;;7.80;99.90;;;;;;5137300;27;20206;-76
2022/11/07 18:21:41;;;;;;;17.23;8.37;;;7.70;99.90;;;;;;5136342;27;20236;-77
2022/11/07 18:24:10;;;;;;;11.10;6.77;;;7.70;99.90;;;;;;5117308;28;20293;-76
2022/11/07 18:26:40;;;;;;;13.33;7.90;;;7.70;99.90;;;;;;5114760;28;20206;-76
2022/11/07 18:29:11;;;;;;;11.20;6.77;;;7.70;99.90;;;;;;5114396;28;20636;-74
2022/11/07 18:31:40;;;;;;;10.63;5.97;;;7.70;99.90;;;;;;5132640;27;20283;-74
2022/11/07 18:34:14;;;;;;;9.67;6.30;;;7.70;99.90;;;;;;5134949;27;20292;-76
2022/11/07 18:36:44;;;;;;;8.93;6.00;;;7.70;99.90;;;;;;5135409;27;20293;-74
2022/11/07 18:39:20;;;;;;;10.63;5.80;;;7.70;99.90;;;;;;5134821;27;20663;-73
2022/11/07 18:41:49;;;;;;;8.60;4.90;;;7.80;99.90;;;;;;5133917;27;20662;-75
2022/11/07 18:44:18;;;;;;;8.97;5.50;;;7.70;99.90;;;;;;5135466;27;20209;-75
2022/11/07 18:46:47;;;;;;;9.47;5.23;;;7.70;99.90;;;;;;5134950;27;20620;-75
2022/11/07 18:49:17;;;;;;;7.33;4.80;;;7.70;99.90;;;;;;5134658;27;20206;-75
2022/11/07 18:51:46;;;;;;;12.10;5.23;;;7.70;99.90;;;;;;5134574;27;20224;-75
2022/11/07 18:54:14;;;;;;;10.43;5.00;;;7.60;99.90;;;;;;5134414;27;20721;-75
2022/11/07 18:56:43;;;;;;;7.27;5.27;;;7.60;99.90;;;;;;5133818;27;20217;-76
2022/11/07 18:59:14;;;;;;;8.57;5.43;;;7.60;99.90;;;;;;5134460;27;20300;-75
2022/11/07 19:01:44;;;;;;;10.97;5.70;;;7.50;99.90;;;;;;5134314;27;20659;-76
2022/11/07 19:04:12;;;;;;;10.60;5.53;;;7.40;99.90;;;;;;5134019;27;20212;-75
2022/11/07 19:06:55;;;;;;;8.13;5.20;;;7.40;99.90;;;;;;5153623;27;20224;-75
2022/11/07 19:09:27;;;;;;;10.60;5.53;;;7.40;99.90;;;;;;5153812;27;20209;-75
2022/11/07 19:11:56;;;;;;;7.50;5.13;;;7.30;99.90;;;;;;5137326;27;20214;-74
2022/11/07 19:14:25;;;;;;;7.93;4.80;;;7.30;99.90;;;;;;5129593;27;20247;-75
2022/11/07 19:16:53;;;;;;;10.37;5.43;;;7.30;99.90;;;;;;5135216;27;20654;-73
2022/11/07 19:19:22;;;;;;;8.63;5.50;;;7.30;99.90;;;;;;5130610;27;20316;-74
2022/11/07 19:21:54;;;;;;;8.57;5.00;;;7.20;99.90;;;;;;5132821;27;20316;-77
2022/11/07 19:24:22;;;;;;;7.93;5.43;;;7.20;99.90;;;;;;5120290;27;20237;-74
2022/11/07 19:26:50;;;;;;;7.67;5.27;;;7.20;99.90;;;;;;5114038;28;20217;-76
2022/11/07 19:29:19;;;;;;;6.47;5.23;;;7.20;99.90;;;;;;5114705;28;20232;-75
2022/11/07 19:31:47;;;;;;;10.30;5.50;;;7.10;99.90;;;;;;5114483;28;20338;-76
2022/11/07 19:34:20;;;;;;;9.43;5.20;;;7.10;99.90;;;;;;5132429;27;20241;-74
2022/11/07 19:36:49;;;;;;;10.73;5.27;;;7.10;99.90;;;;;;5155124;27;20186;-75
2022/11/07 19:39:18;;;;;;;9.90;5.50;;;7.10;99.90;;;;;;5155163;27;20201;-74
2022/11/07 19:41:47;;;;;;;8.30;5.67;;;7.00;99.90;;;;;;5155411;27;20262;-75
2022/11/07 19:44:15;;;;;;;11.13;5.80;;;6.90;99.90;;;;;;5114820;27;20734;-75
2022/11/07 19:46:44;;;;;;;7.97;5.60;;;6.90;99.90;;;;;;5114239;28;20702;-76
2022/11/07 19:49:12;;;;;;;8.77;5.77;;;6.80;99.90;;;;;;5114270;28;20233;-76
2022/11/07 19:51:40;;;;;;;10.57;5.87;;;6.70;99.90;;;;;;5113856;28;20305;-75
2022/11/07 19:54:10;;;;;;;9.57;5.80;;;6.70;99.90;;;;;;5114032;28;20579;-75
2022/11/07 19:56:39;;;;;;;8.63;6.10;;;6.70;99.90;;;;;;5113392;28;20232;-76
2022/11/07 19:59:10;;;;;;;8.53;5.80;;;6.60;99.90;;;;;;5112862;28;20297;-76
2022/11/07 20:01:40;;;;;;;10.73;5.97;;;6.60;99.90;;;;;;5113095;28;20197;-75
2022/11/07 20:04:08;;;;;;;9.17;5.77;;;6.60;99.90;;;;;;5113408;28;20255;-75
2022/11/07 20:06:38;;;;;;;11.50;6.13;;;6.60;99.90;;;;;;5113476;28;20539;-77
2022/11/07 20:09:11;;;;;;;9.60;6.60;;;6.60;99.90;;;;;;5113895;28;20265;-76
2022/11/07 20:11:41;;;;;;;9.77;6.27;;;6.50;99.90;;;;;;5113723;28;20206;-74
2022/11/07 20:14:11;;;;;;;9.03;6.10;;;6.50;99.90;;;;;;5113502;28;20247;-75
2022/11/07 20:16:40;;;;;;;8.80;6.00;;;6.50;99.90;;;;;;5113038;28;20265;-74
2022/11/07 20:19:10;;;;;;;11.33;5.87;;;6.60;99.90;;;;;;5113778;28;20209;-74
2022/11/07 20:21:39;;;;;;;10.03;5.67;;;6.60;99.90;;;;;;5113529;28;20547;-75
2022/11/07 20:24:08;;;;;;;8.53;5.27;;;6.60;99.90;;;;;;5113143;28;20639;-75
2022/11/07 20:26:37;;;;;;;7.37;5.23;;;6.60;99.90;;;;;;5113050;28;20241;-76
2022/11/07 20:29:09;;;;;;;7.23;4.20;;;6.60;99.90;;;;;;5112988;28;20216;-75
2022/11/07 20:31:38;;;;;;;7.07;5.30;;;6.60;99.90;;;;;;5113828;28;20206;-75
2022/11/07 20:34:14;;;;;;;10.83;7.97;;;6.70;99.90;;;;;;5113344;28;20217;-74
2022/11/07 20:36:45;;;;;;;10.57;7.30;;;6.70;99.90;;;;;;5113554;28;20186;-74
2022/11/07 20:39:17;;;;;;;8.70;6.37;;;6.70;99.90;;;;;;5112328;28;20667;-75
2022/11/07 20:41:45;;;;;;;7.00;4.47;;;6.80;99.90;;;;;;5113288;28;20210;-76
2022/11/07 20:44:16;;;;;;;13.57;7.90;;;6.80;99.90;;;;;;5112702;28;20583;-74
2022/11/07 20:46:45;;;;;;;11.47;6.13;;;6.80;99.90;;;;;;5113406;28;20190;-76
2022/11/07 20:49:16;;;;;;;9.50;5.37;;;6.80;99.90;;;;;;5112839;28;20268;-75
2022/11/07 20:51:45;;;;;;;10.73;5.47;;;6.80;99.90;;;;;;5112822;28;20297;-75
2022/11/07 20:54:15;;;;;;;10.17;6.33;;;6.90;99.90;;;;;;5125087;28;20221;-75
2022/11/07 20:56:43;;;;;;;12.13;6.83;;;6.80;99.90;;;;;;5114161;28;20238;-74
2022/11/07 20:59:11;;;;;;;7.83;5.17;;;6.80;99.90;;;;;;5112791;28;20221;-73
2022/11/07 21:01:41;;;;;;;6.77;4.67;;;6.80;99.90;;;;;;5112794;28;20561;-77
2022/11/07 21:04:14;;;;;;;10.97;5.10;;;6.80;99.90;;;;;;5114833;27;20297;-75
2022/11/07 21:06:51;;;;;;;6.57;4.47;;;6.80;99.90;;;;;;5122419;28;20683;-76
2022/11/07 21:09:20;;;;;;;6.80;4.10;;;6.80;99.90;;;;;;5121116;28;20190;-74
2022/11/07 21:11:50;;;;;;;6.47;4.50;;;6.80;99.90;;;;;;5126693;27;20209;-75
2022/11/07 21:14:19;;;;;;;6.50;4.03;;;6.70;99.90;;;;;;5137169;27;20233;-75
2022/11/07 21:16:51;;;;;;;7.00;4.47;;;6.80;99.90;;;;;;5136399;27;20217;-76
2022/11/07 21:19:21;;;;;;;5.67;3.40;;;6.80;99.90;;;;;;5136327;27;20213;-75